createdAt,value
2019-03-20T00:00:28.676Z,65.40
2019-03-20T00:02:54.769Z,65.30
2019-03-20T00:05:36.033Z,65.40
2019-03-20T00:08:02.328Z,65.50
2019-03-20T00:10:46.788Z,65.60
2019-03-20T00:13:12.872Z,65.50
2019-03-20T00:15:48.184Z,65.70
2019-03-20T00:18:14.269Z,65.70
2019-03-20T00:20:40.384Z,65.70
2019-03-20T00:23:06.516Z,65.70
2019-03-20T00:25:47.750Z,65.80
2019-03-20T00:28:16.481Z,65.90
2019-03-20T00:30:42.538Z,65.80
2019-03-20T00:33:08.599Z,65.90
2019-03-20T00:35:37.323Z,65.90
2019-03-20T00:38:03.405Z,65.90
2019-03-20T00:40:32.535Z,66.00
2019-03-20T00:42:59.439Z,66.20
2019-03-20T00:45:34.594Z,66.10
2019-03-20T00:48:00.706Z,66.20
2019-03-20T00:50:26.750Z,66.10
2019-03-20T00:52:55.645Z,66.20
2019-03-20T00:55:21.694Z,66.10
2019-03-20T00:57:47.782Z,66.30
2019-03-20T01:00:20.596Z,66.40
2019-03-20T01:02:46.797Z,66.40
2019-03-20T01:05:13.345Z,66.50
2019-03-20T01:07:39.394Z,66.60
2019-03-20T01:10:13.173Z,66.70
2019-03-20T01:12:41.904Z,66.70
2019-03-20T01:15:08.350Z,66.80
2019-03-20T01:17:34.411Z,66.90
2019-03-20T01:20:00.565Z,67.50
2019-03-20T01:22:26.645Z,66.90
2019-03-20T01:24:52.697Z,67.10
2019-03-20T01:27:18.737Z,67.10
2019-03-20T01:29:44.827Z,67.10
2019-03-20T01:32:10.994Z,67.30
2019-03-20T01:34:52.394Z,67.30
2019-03-20T01:37:18.433Z,67.40
2019-03-20T01:39:44.535Z,67.40
2019-03-20T01:42:13.314Z,67.30
2019-03-20T01:44:39.370Z,67.10
2019-03-20T01:47:06.835Z,67.20
2019-03-20T01:49:33.099Z,67.50
2019-03-20T01:51:59.291Z,67.60
2019-03-20T01:54:25.597Z,67.50
2019-03-20T01:56:51.687Z,67.50
2019-03-20T01:59:20.822Z,67.50
2019-03-20T02:01:46.876Z,67.40
2019-03-20T02:04:12.925Z,67.60
2019-03-20T02:06:41.750Z,67.60
2019-03-20T02:09:07.816Z,67.70
2019-03-20T02:11:33.954Z,67.80
2019-03-20T02:14:00.041Z,67.60
2019-03-20T02:16:26.115Z,67.70
2019-03-20T02:18:52.219Z,67.90
2019-03-20T02:21:18.260Z,68.50
2019-03-20T02:23:46.972Z,67.80
2019-03-20T02:26:13.124Z,67.90
2019-03-20T02:28:39.160Z,68.10
2019-03-20T02:31:05.190Z,68.00
2019-03-20T02:33:31.231Z,68.00
2019-03-20T02:35:57.315Z,68.00
2019-03-20T02:38:23.365Z,68.10
2019-03-20T02:40:49.395Z,67.90
2019-03-20T02:43:15.449Z,68.00
2019-03-20T02:45:44.307Z,68.00
2019-03-20T02:48:10.376Z,68.00
2019-03-20T02:50:36.427Z,68.10
2019-03-20T02:53:02.717Z,68.20
2019-03-20T02:55:28.793Z,68.40
2019-03-20T02:57:54.884Z,68.50
2019-03-20T03:00:21.019Z,68.40
2019-03-20T03:02:47.215Z,68.40
2019-03-20T03:05:13.965Z,68.40
2019-03-20T03:07:40.256Z,68.50
2019-03-20T03:10:07.954Z,68.50
2019-03-20T03:12:36.855Z,68.70
2019-03-20T03:15:06.817Z,68.70
2019-03-20T03:17:32.865Z,68.70
2019-03-20T03:19:58.969Z,68.70
2019-03-20T03:22:25.012Z,68.70
2019-03-20T03:24:51.120Z,68.70
2019-03-20T03:27:17.288Z,68.70
2019-03-20T03:29:43.343Z,68.80
2019-03-20T03:32:09.410Z,68.90
2019-03-20T03:34:44.901Z,68.90
2019-03-20T03:37:11.024Z,68.80
2019-03-20T03:39:37.327Z,68.80
2019-03-20T03:42:03.600Z,68.90
2019-03-20T03:44:29.666Z,69.00
2019-03-20T03:46:55.715Z,69.20
2019-03-20T03:49:21.829Z,69.10
2019-03-20T03:51:47.865Z,69.20
2019-03-20T03:54:14.053Z,69.40
2019-03-20T03:56:40.128Z,69.40
2019-03-20T03:59:06.303Z,69.50
2019-03-20T04:01:32.533Z,70.10
2019-03-20T04:03:58.748Z,69.30
2019-03-20T04:06:34.910Z,69.50
2019-03-20T04:08:52.788Z,69.40
2019-03-20T04:11:18.858Z,69.50
2019-03-20T04:13:44.912Z,69.60
2019-03-20T04:16:13.633Z,69.60
2019-03-20T04:18:39.699Z,69.50
2019-03-20T04:21:05.842Z,69.60
2019-03-20T04:23:31.890Z,70.10
2019-03-20T04:25:57.968Z,69.50
2019-03-20T04:28:24.035Z,69.60
2019-03-20T04:30:50.111Z,69.70
2019-03-20T04:33:16.175Z,69.90
2019-03-20T04:35:42.222Z,69.80
2019-03-20T04:38:08.401Z,70.10
2019-03-20T04:40:34.469Z,70.20
2019-03-20T04:43:00.554Z,70.00
2019-03-20T04:45:32.875Z,69.90
2019-03-20T04:47:58.936Z,70.00
2019-03-20T04:50:24.990Z,70.20
2019-03-20T04:52:53.767Z,70.10
2019-03-20T04:55:19.885Z,70.20
2019-03-20T04:57:58.087Z,70.20
2019-03-20T05:00:24.169Z,70.40
2019-03-20T05:02:53.117Z,70.30
2019-03-20T05:05:19.277Z,70.40
2019-03-20T05:07:45.577Z,70.30
2019-03-20T05:10:13.634Z,70.40
2019-03-20T05:12:42.279Z,70.60
2019-03-20T05:15:09.662Z,70.50
2019-03-20T05:17:35.718Z,70.50
2019-03-20T05:20:02.539Z,70.60
2019-03-20T05:22:28.604Z,70.60
2019-03-20T05:24:57.568Z,70.70
2019-03-20T05:27:26.446Z,70.90
2019-03-20T05:29:52.539Z,70.90
2019-03-20T05:32:19.675Z,70.90
2019-03-20T05:34:45.936Z,71.10
2019-03-20T05:37:14.679Z,71.10
2019-03-20T05:39:40.745Z,71.10
2019-03-20T05:42:06.800Z,71.20
2019-03-20T05:44:32.905Z,71.20
2019-03-20T05:47:02.099Z,71.30
2019-03-20T05:49:28.175Z,71.30
2019-03-20T05:51:57.016Z,71.30
2019-03-20T05:54:25.813Z,71.40
2019-03-20T05:56:54.564Z,71.30
2019-03-20T05:59:20.652Z,71.30
2019-03-20T06:01:46.846Z,71.30
2019-03-20T06:04:15.621Z,71.40
2019-03-20T06:06:59.973Z,71.30
2019-03-20T06:09:26.052Z,71.30
2019-03-20T06:11:52.141Z,71.30
2019-03-20T06:14:36.826Z,71.30
2019-03-20T06:17:02.995Z,71.20
2019-03-20T06:19:29.028Z,71.10
2019-03-20T06:21:55.214Z,71.10
2019-03-20T06:24:21.394Z,71.00
2019-03-20T06:26:47.588Z,71.00
2019-03-20T06:29:13.675Z,71.00
2019-03-20T06:31:39.761Z,71.00
2019-03-20T06:34:20.988Z,71.10
2019-03-20T06:36:47.254Z,71.10
2019-03-20T06:39:13.543Z,70.90
2019-03-20T06:41:54.703Z,71.00
2019-03-20T06:44:20.794Z,71.00
2019-03-20T06:47:05.307Z,70.90
2019-03-20T06:49:31.511Z,70.90
2019-03-20T06:51:57.616Z,70.90
2019-03-20T06:54:23.694Z,70.80
2019-03-20T06:56:49.778Z,70.90
2019-03-20T06:59:35.705Z,70.80
2019-03-20T07:02:03.372Z,70.60
2019-03-20T07:04:37.460Z,70.80
2019-03-20T07:07:08.482Z,70.70
2019-03-20T07:09:53.140Z,70.50
2019-03-20T07:12:19.371Z,70.30
2019-03-20T07:14:45.463Z,70.40
2019-03-20T07:17:11.568Z,70.40
2019-03-20T07:19:37.631Z,70.40
2019-03-20T07:22:03.729Z,70.30
2019-03-20T07:24:29.790Z,70.40
2019-03-20T07:27:11.124Z,70.60
2019-03-20T07:29:37.296Z,70.60
2019-03-20T07:32:15.587Z,70.60
2019-03-20T07:34:41.691Z,70.50
2019-03-20T07:37:23.028Z,70.70
2019-03-20T07:39:49.080Z,70.50
2019-03-20T07:42:18.286Z,70.60
2019-03-20T07:44:44.431Z,70.50
2019-03-20T07:47:29.352Z,70.60
2019-03-20T07:49:58.167Z,70.30
2019-03-20T07:52:24.346Z,70.40
2019-03-20T07:54:50.397Z,70.60
2019-03-20T07:57:19.145Z,70.70
2019-03-20T08:00:05.352Z,70.60
2019-03-20T08:02:34.196Z,70.30
2019-03-20T08:05:04.222Z,70.30
2019-03-20T08:07:30.344Z,70.40
2019-03-20T08:09:56.505Z,70.60
2019-03-20T08:12:22.671Z,70.40
2019-03-20T08:14:48.814Z,70.50
2019-03-20T08:17:15.026Z,70.30
2019-03-20T08:19:41.127Z,70.30
2019-03-20T08:22:07.224Z,70.10
2019-03-20T08:24:33.341Z,70.10
2019-03-20T08:26:59.458Z,70.20
2019-03-20T08:29:25.511Z,70.20
2019-03-20T08:31:54.225Z,70.30
2019-03-20T08:34:20.359Z,70.30
2019-03-20T08:36:46.528Z,70.40
2019-03-20T08:39:12.611Z,70.40
2019-03-20T08:41:38.898Z,70.60
2019-03-20T08:44:05.093Z,70.70
2019-03-20T08:46:31.188Z,70.90
2019-03-20T08:48:57.291Z,71.00
2019-03-20T08:51:23.378Z,71.20
2019-03-20T08:53:49.448Z,71.30
2019-03-20T08:56:15.497Z,71.50
2019-03-20T08:58:44.329Z,71.50
2019-03-20T09:01:10.450Z,71.50
2019-03-20T09:03:36.578Z,71.50
2019-03-20T09:06:05.612Z,71.60
2019-03-20T09:08:31.671Z,71.50
2019-03-20T09:10:57.698Z,71.50
2019-03-20T09:13:27.034Z,71.50
2019-03-20T09:15:53.134Z,71.70
2019-03-20T09:18:25.370Z,71.70
2019-03-20T09:20:54.082Z,71.70
2019-03-20T09:23:20.149Z,71.50
2019-03-20T09:25:46.192Z,71.40
2019-03-20T09:28:14.955Z,71.40
2019-03-20T09:30:41.143Z,70.50
2019-03-20T09:33:07.309Z,70.40
2019-03-20T09:35:33.418Z,71.30
2019-03-20T09:37:59.580Z,70.40
2019-03-20T09:40:25.960Z,70.30
2019-03-20T09:42:52.029Z,70.00
2019-03-20T09:45:18.571Z,70.00
2019-03-20T09:47:47.463Z,70.00
2019-03-20T09:50:14.589Z,70.10
2019-03-20T09:52:41.000Z,70.00
2019-03-20T09:55:08.417Z,71.10
2019-03-20T09:57:37.255Z,71.30
2019-03-20T10:00:08.033Z,71.50
2019-03-20T10:02:36.977Z,70.70
2019-03-20T10:05:04.153Z,70.70
2019-03-20T10:07:49.094Z,70.90
2019-03-20T10:10:19.935Z,71.20
2019-03-20T10:12:46.216Z,71.10
2019-03-20T10:15:13.700Z,71.10
2019-03-20T10:17:42.633Z,70.70
2019-03-20T10:20:11.762Z,70.80
2019-03-20T10:22:38.989Z,70.80
2019-03-20T10:25:09.258Z,70.70
2019-03-20T10:27:35.315Z,70.50
2019-03-20T10:30:01.423Z,70.60
2019-03-20T10:32:27.497Z,70.60
2019-03-20T10:34:53.649Z,70.60
2019-03-20T10:37:19.709Z,70.40
2019-03-20T10:39:45.781Z,70.40
2019-03-20T10:42:27.075Z,70.50
2019-03-20T10:45:09.442Z,70.30
2019-03-20T10:47:35.536Z,70.20
2019-03-20T10:50:02.955Z,70.20
2019-03-20T10:52:29.144Z,70.10
2019-03-20T10:55:01.302Z,70.40
2019-03-20T10:57:36.035Z,70.40
2019-03-20T11:00:04.013Z,70.70
2019-03-20T11:02:30.052Z,70.60
2019-03-20T11:04:56.094Z,70.70
2019-03-20T11:07:40.809Z,70.60
2019-03-20T11:10:08.795Z,70.80
2019-03-20T11:12:37.470Z,70.70
2019-03-20T11:15:05.478Z,70.70
2019-03-20T11:17:31.534Z,70.70
2019-03-20T11:20:00.441Z,70.70
2019-03-20T11:22:46.610Z,70.70
2019-03-20T11:25:16.612Z,70.60
2019-03-20T11:27:45.233Z,70.70
2019-03-20T11:30:17.802Z,70.70
2019-03-20T11:32:53.550Z,71.00
2019-03-20T11:35:19.714Z,71.20
2019-03-20T11:37:45.765Z,71.50
2019-03-20T11:40:22.771Z,71.90
2019-03-20T11:42:48.884Z,72.00
2019-03-20T11:45:15.138Z,72.30
2019-03-20T11:47:41.278Z,72.50
2019-03-20T11:50:11.938Z,72.50
2019-03-20T11:52:50.438Z,72.60
2019-03-20T11:55:16.772Z,72.50
2019-03-20T11:57:43.081Z,72.40
2019-03-20T12:00:13.242Z,72.40
2019-03-20T12:02:57.838Z,72.40
2019-03-20T12:05:23.889Z,72.60
2019-03-20T12:07:56.386Z,73.00
2019-03-20T12:10:29.591Z,73.00
2019-03-20T12:12:55.641Z,73.00
2019-03-20T12:15:21.890Z,73.00
2019-03-20T12:17:47.930Z,73.30
2019-03-20T12:20:15.907Z,73.30
2019-03-20T12:22:42.348Z,73.40
2019-03-20T12:25:10.572Z,73.30
2019-03-20T12:27:37.053Z,73.60
2019-03-20T12:30:07.918Z,73.60
2019-03-20T12:32:36.818Z,73.50
2019-03-20T12:35:04.980Z,73.70
2019-03-20T12:37:33.703Z,73.60
2019-03-20T12:40:04.424Z,73.70
2019-03-20T12:42:33.301Z,73.50
2019-03-20T12:44:59.419Z,73.50
2019-03-20T12:47:25.699Z,73.50
2019-03-20T12:49:51.866Z,73.50
2019-03-20T12:52:17.924Z,73.60
2019-03-20T12:54:43.987Z,73.60
2019-03-20T12:57:10.046Z,73.60
2019-03-20T12:59:38.947Z,73.80
2019-03-20T13:02:05.254Z,73.80
2019-03-20T13:04:31.366Z,73.70
2019-03-20T13:06:57.444Z,73.70
2019-03-20T13:09:23.804Z,73.70
2019-03-20T13:11:52.725Z,73.60
2019-03-20T13:14:18.845Z,73.70
2019-03-20T13:16:44.913Z,73.70
2019-03-20T13:19:13.763Z,73.60
2019-03-20T13:21:39.846Z,73.60
2019-03-20T13:24:06.085Z,73.70
2019-03-20T13:26:32.297Z,73.60
2019-03-20T13:28:58.845Z,73.90
2019-03-20T13:31:24.915Z,74.00
2019-03-20T13:33:51.004Z,74.00
2019-03-20T13:36:17.069Z,74.00
2019-03-20T13:38:43.147Z,74.00
2019-03-20T13:41:11.982Z,74.00
2019-03-20T13:43:40.657Z,74.30
2019-03-20T13:52:14.630Z,73.80
2019-03-20T13:54:40.691Z,73.70
2019-03-20T13:57:06.731Z,74.00
2019-03-20T13:59:39.042Z,73.90
2019-03-20T14:02:05.126Z,74.10
2019-03-20T14:04:31.258Z,74.20
2019-03-20T14:06:57.523Z,74.30
2019-03-20T14:09:23.778Z,74.20
2019-03-20T14:11:49.894Z,74.10
2019-03-20T14:14:15.930Z,74.00
2019-03-20T14:16:42.013Z,74.10
2019-03-20T14:19:08.060Z,74.00
2019-03-20T14:21:36.806Z,74.00
2019-03-20T14:24:02.910Z,74.00
2019-03-20T14:26:29.020Z,74.00
2019-03-20T14:28:57.755Z,73.90
2019-03-20T14:31:23.915Z,73.90
2019-03-20T14:33:49.958Z,73.90
2019-03-20T14:36:18.762Z,74.60
2019-03-20T14:38:47.424Z,73.90
2019-03-20T14:41:21.605Z,74.00
2019-03-20T14:43:44.400Z,74.00
2019-03-20T14:46:10.736Z,74.00
2019-03-20T14:48:36.944Z,74.80
2019-03-20T14:51:03.063Z,74.10
2019-03-20T14:53:29.181Z,74.20
2019-03-20T14:55:55.410Z,74.20
2019-03-20T14:58:24.622Z,74.30
2019-03-20T15:00:50.924Z,74.40
2019-03-20T15:03:16.984Z,74.40
2019-03-20T15:05:43.075Z,74.40
2019-03-20T15:08:09.150Z,74.30
2019-03-20T15:10:35.325Z,74.80
2019-03-20T15:13:04.252Z,74.40
2019-03-20T15:15:50.708Z,74.40
2019-03-20T15:18:19.399Z,74.40
2019-03-20T15:20:45.633Z,74.50
2019-03-20T15:23:11.747Z,75.00
2019-03-20T15:25:37.788Z,74.80
2019-03-20T15:28:03.837Z,74.70
2019-03-20T15:30:29.942Z,74.90
2019-03-20T15:32:55.999Z,74.70
2019-03-20T15:35:22.052Z,75.00
2019-03-20T15:38:03.460Z,75.00
2019-03-20T15:40:29.844Z,75.00
2019-03-20T15:42:55.926Z,75.00
2019-03-20T15:45:37.308Z,75.10
2019-03-20T15:48:22.053Z,75.30
2019-03-20T15:50:48.142Z,75.20
2019-03-20T15:53:14.293Z,75.20
2019-03-20T15:55:40.737Z,75.20
2019-03-20T15:58:09.563Z,75.20
2019-03-20T16:00:38.263Z,75.90
2019-03-20T16:03:09.364Z,75.20
2019-03-20T16:05:35.581Z,75.20
2019-03-20T16:08:01.646Z,75.10
2019-03-20T16:10:27.681Z,75.30
2019-03-20T16:12:54.901Z,75.30
2019-03-20T16:15:39.187Z,75.40
2019-03-20T16:18:08.074Z,75.50
2019-03-20T16:20:36.936Z,75.40
2019-03-20T16:23:03.116Z,75.30
2019-03-20T16:25:29.161Z,75.40
2019-03-20T16:28:04.510Z,75.40
2019-03-20T16:30:31.099Z,75.50
2019-03-20T16:32:57.168Z,75.60
2019-03-20T16:35:41.912Z,75.60
2019-03-20T16:38:08.035Z,75.60
2019-03-20T16:40:34.732Z,75.60
2019-03-20T16:43:00.891Z,75.40
2019-03-20T16:45:30.760Z,75.50
2019-03-20T16:47:57.074Z,75.50
2019-03-20T16:50:23.198Z,76.20
2019-03-20T16:52:49.261Z,75.60
2019-03-20T16:55:15.418Z,75.70
2019-03-20T16:57:44.298Z,75.60
2019-03-20T17:00:29.675Z,75.60
2019-03-20T17:02:55.763Z,75.60
2019-03-20T17:05:21.805Z,75.50
2019-03-20T17:07:47.963Z,75.60
2019-03-20T17:10:24.986Z,75.50
2019-03-20T17:13:06.296Z,75.60
2019-03-20T17:15:33.448Z,75.70
2019-03-20T17:17:59.515Z,75.70
2019-03-20T17:20:28.401Z,75.80
2019-03-20T17:22:54.550Z,75.80
2019-03-20T17:25:20.611Z,76.40
2019-03-20T17:27:46.794Z,75.80
2019-03-20T17:30:20.593Z,75.80
2019-03-20T17:32:49.291Z,75.80
2019-03-20T17:35:15.598Z,75.70
2019-03-20T17:37:44.373Z,75.70
2019-03-20T17:40:14.997Z,75.90
2019-03-20T17:42:43.611Z,75.90
2019-03-20T17:45:11.060Z,75.80
2019-03-20T17:47:39.718Z,76.00
2019-03-20T17:50:10.358Z,76.00
2019-03-20T17:52:36.428Z,76.10
2019-03-20T17:55:17.722Z,76.10
2019-03-20T17:57:43.817Z,76.10
2019-03-20T18:00:22.576Z,76.80
2019-03-20T18:03:07.858Z,76.10
2019-03-20T18:05:37.005Z,76.10
2019-03-20T18:08:04.189Z,76.10
2019-03-20T18:10:42.602Z,76.30
2019-03-20T18:13:08.735Z,76.20
2019-03-20T18:15:37.922Z,76.30
2019-03-20T18:18:04.766Z,76.30
2019-03-20T18:20:34.155Z,76.30
2019-03-20T18:23:00.652Z,76.30
2019-03-20T18:25:35.967Z,76.40
2019-03-20T18:28:02.447Z,76.40
2019-03-20T18:30:38.785Z,76.30
2019-03-20T18:33:07.739Z,76.30
2019-03-20T18:35:33.893Z,76.30
2019-03-20T18:38:00.004Z,76.30
2019-03-20T18:40:27.067Z,76.40
2019-03-20T18:42:59.781Z,76.40
2019-03-20T18:45:28.369Z,76.40
2019-03-20T18:47:54.432Z,76.40
2019-03-20T18:50:21.050Z,76.40
2019-03-20T18:53:05.395Z,76.40
2019-03-20T18:55:31.580Z,76.40
2019-03-20T18:58:00.705Z,76.50
2019-03-20T19:00:30.600Z,76.40
2019-03-20T19:02:58.452Z,76.50
2019-03-20T19:05:41.130Z,76.40
2019-03-20T19:08:26.291Z,76.50
2019-03-20T19:10:52.562Z,76.40
2019-03-20T19:13:21.323Z,76.60
2019-03-20T19:16:02.885Z,76.60
2019-03-20T19:18:31.801Z,76.50
2019-03-20T19:20:57.924Z,76.60
2019-03-20T19:23:24.076Z,76.60
2019-03-20T19:25:50.124Z,76.70
2019-03-20T19:28:35.077Z,76.70
2019-03-20T19:31:03.801Z,76.80
2019-03-20T19:33:47.973Z,76.80
2019-03-20T19:36:14.027Z,76.80
2019-03-20T19:38:55.512Z,76.80
2019-03-20T19:41:21.541Z,76.80
2019-03-20T19:43:53.807Z,76.70
2019-03-20T19:46:19.946Z,76.80
2019-03-20T19:49:05.014Z,76.80
2019-03-20T19:51:31.082Z,76.80
2019-03-20T19:53:57.185Z,76.80
2019-03-20T19:56:41.817Z,77.00
2019-03-20T19:59:10.573Z,76.90
2019-03-20T20:01:36.658Z,77.00
2019-03-20T20:04:02.714Z,77.20
2019-03-20T20:06:29.007Z,77.20
2019-03-20T20:08:57.875Z,77.20
2019-03-20T20:11:27.129Z,77.10
2019-03-20T20:13:53.258Z,77.00
2019-03-20T20:16:28.484Z,77.10
2019-03-20T20:18:54.565Z,77.10
2019-03-20T20:21:23.840Z,77.10
2019-03-20T20:23:49.983Z,77.10
2019-03-20T20:26:19.214Z,77.10
2019-03-20T20:28:45.419Z,77.20
2019-03-20T20:31:11.556Z,77.60
2019-03-20T20:33:53.045Z,77.20
2019-03-20T20:36:21.851Z,77.20
2019-03-20T20:39:06.171Z,77.30
2019-03-20T20:41:34.874Z,77.20
2019-03-20T20:44:00.939Z,77.40
2019-03-20T20:46:27.054Z,77.30
2019-03-20T20:48:55.758Z,77.30
2019-03-20T20:51:24.569Z,77.50
2019-03-20T20:54:08.711Z,77.30
2019-03-20T20:56:34.757Z,77.40
2019-03-20T20:59:13.130Z,77.40
2019-03-20T21:01:39.189Z,77.50
2019-03-20T21:04:20.670Z,77.50
2019-03-20T21:06:46.822Z,77.50
2019-03-20T21:09:31.943Z,77.50
2019-03-20T21:12:00.684Z,77.50
2019-03-20T21:14:26.781Z,77.50
2019-03-20T21:16:52.950Z,77.70
2019-03-20T21:19:30.228Z,77.70
2019-03-20T21:22:06.655Z,77.80
2019-03-20T21:24:32.715Z,77.70
2019-03-20T21:27:03.777Z,77.70
2019-03-20T21:29:34.870Z,77.80
2019-03-20T21:32:15.138Z,77.70
2019-03-20T21:35:18.527Z,77.70
2019-03-20T21:37:46.530Z,77.70
2019-03-20T21:40:15.498Z,78.40
2019-03-20T21:43:07.383Z,77.80
2019-03-20T21:45:45.427Z,77.80
2019-03-20T21:48:11.515Z,77.60
2019-03-20T21:50:42.595Z,77.80
2019-03-20T21:53:13.128Z,77.70
2019-03-20T21:55:57.915Z,77.60
2019-03-20T21:58:25.854Z,77.60
2019-03-20T22:01:09.284Z,77.60
2019-03-20T22:03:53.931Z,77.60
2019-03-20T22:06:38.940Z,77.80
2019-03-20T22:09:06.285Z,77.80
2019-03-20T22:11:34.266Z,77.80
2019-03-20T22:14:11.009Z,78.00
2019-03-20T22:16:56.263Z,78.00
2019-03-20T22:19:42.006Z,78.00
2019-03-20T22:22:18.469Z,78.00
2019-03-20T22:25:04.526Z,77.90
2019-03-20T22:27:44.180Z,78.10
2019-03-20T22:30:12.931Z,78.10
2019-03-20T22:32:57.016Z,78.10
2019-03-20T22:35:27.973Z,78.00
2019-03-20T22:37:55.111Z,78.00
2019-03-20T22:40:42.361Z,77.90
2019-03-20T22:43:10.355Z,78.00
2019-03-20T22:45:41.181Z,78.00
2019-03-20T22:48:33.696Z,78.10
2019-03-20T22:51:10.899Z,78.20
2019-03-20T22:53:59.517Z,78.40
2019-03-20T22:56:44.682Z,78.40
2019-03-20T22:59:10.729Z,78.40
2019-03-20T23:01:38.730Z,78.40
2019-03-20T23:04:09.721Z,78.30
2019-03-20T23:06:35.791Z,78.40
2019-03-20T23:09:11.299Z,78.40
2019-03-20T23:11:37.694Z,78.50
2019-03-20T23:14:03.800Z,78.40
2019-03-20T23:16:29.902Z,78.50
2019-03-20T23:18:56.048Z,78.50
2019-03-20T23:21:22.115Z,78.70
2019-03-20T23:23:51.198Z,78.60
2019-03-20T23:26:17.254Z,78.60
2019-03-20T23:28:43.335Z,78.60
2019-03-20T23:31:12.270Z,78.60
2019-03-20T23:33:38.405Z,78.60
2019-03-20T23:36:04.854Z,78.90
2019-03-20T23:38:30.970Z,78.60
2019-03-20T23:40:57.062Z,78.70
2019-03-20T23:43:23.199Z,78.50
2019-03-20T23:45:49.322Z,78.50
2019-03-20T23:48:26.421Z,78.50
2019-03-20T23:50:54.431Z,78.50
2019-03-20T23:53:23.352Z,78.50
2019-03-20T23:55:49.427Z,78.50
2019-03-20T23:58:15.478Z,78.50
